createdAt,value
2018-01-11T00:00:54.540Z,2.18
2018-01-11T00:03:22.309Z,2.21
2018-01-11T00:05:50.083Z,2.15
2018-01-11T00:08:17.795Z,2.04
2018-01-11T00:10:45.520Z,2.04
2018-01-11T00:13:13.250Z,2.06
2018-01-11T00:15:40.932Z,2.12
2018-01-11T00:18:08.647Z,2.17
2018-01-11T00:20:36.368Z,2.21
2018-01-11T00:23:04.113Z,2.27
2018-01-11T00:25:31.846Z,2.27
2018-01-11T00:27:59.559Z,2.24
2018-01-11T00:30:27.294Z,2.20
2018-01-11T00:32:55.030Z,2.21
2018-01-11T00:35:22.714Z,2.18
2018-01-11T00:37:50.795Z,2.17
2018-01-11T00:40:18.515Z,2.14
2018-01-11T00:42:46.243Z,2.13
2018-01-11T00:45:13.997Z,2.16
2018-01-11T00:47:41.672Z,2.16
2018-01-11T00:50:09.422Z,2.11
2018-01-11T00:52:37.185Z,2.14
2018-01-11T00:55:04.855Z,2.17
2018-01-11T00:57:32.626Z,2.15
2018-01-11T01:00:00.366Z,2.12
2018-01-11T01:02:28.255Z,2.19
2018-01-11T01:04:55.934Z,2.04
2018-01-11T01:07:23.736Z,2.04
2018-01-11T01:09:51.460Z,2.10
2018-01-11T01:12:19.193Z,2.03
2018-01-11T01:14:46.905Z,2.06
2018-01-11T01:17:14.737Z,1.92
2018-01-11T01:19:42.498Z,1.92
2018-01-11T01:22:10.186Z,1.94
2018-01-11T01:24:37.925Z,1.91
2018-01-11T01:27:05.601Z,1.89
2018-01-11T01:29:33.697Z,1.90
2018-01-11T01:32:01.442Z,1.82
2018-01-11T01:34:29.136Z,1.75
2018-01-11T01:36:56.862Z,1.81
2018-01-11T01:39:24.571Z,1.83
2018-01-11T01:41:52.281Z,1.78
2018-01-11T01:44:20.083Z,1.75
2018-01-11T01:46:47.837Z,1.81
2018-01-11T01:49:15.576Z,1.82
2018-01-11T01:51:43.314Z,1.74
2018-01-11T01:54:11.021Z,1.72
2018-01-11T01:56:38.779Z,1.74
2018-01-11T01:59:06.443Z,1.76
2018-01-11T02:01:34.177Z,1.83
2018-01-11T02:04:01.925Z,1.85
2018-01-11T02:06:30.657Z,1.86
2018-01-11T02:08:58.870Z,1.94
2018-01-11T02:11:26.619Z,1.89
2018-01-11T02:13:54.407Z,1.81
2018-01-11T02:16:22.119Z,1.84
2018-01-11T02:18:49.858Z,1.89
2018-01-11T02:21:17.546Z,1.83
2018-01-11T02:23:45.309Z,1.77
2018-01-11T02:26:13.041Z,1.77
2018-01-11T02:28:40.792Z,1.82
2018-01-11T02:31:09.261Z,1.79
2018-01-11T02:33:38.673Z,1.66
2018-01-11T02:36:06.425Z,1.63
2018-01-11T02:38:34.157Z,1.66
2018-01-11T02:41:01.879Z,1.57
2018-01-11T02:43:29.597Z,1.62
2018-01-11T02:45:57.357Z,1.65
2018-01-11T02:48:25.089Z,1.72
2018-01-11T02:50:52.833Z,1.61
2018-01-11T02:53:20.575Z,1.57
2018-01-11T02:55:48.384Z,1.54
2018-01-11T02:58:16.060Z,1.54
2018-01-11T03:00:43.742Z,1.56
2018-01-11T03:03:12.374Z,1.49
2018-01-11T03:05:40.810Z,1.56
2018-01-11T03:08:08.488Z,1.50
2018-01-11T03:10:36.228Z,1.44
2018-01-11T03:13:03.929Z,1.48
2018-01-11T03:15:31.652Z,1.44
2018-01-11T03:17:59.412Z,1.41
2018-01-11T03:20:27.189Z,1.46
2018-01-11T03:22:54.869Z,1.37
2018-01-11T03:25:22.660Z,1.26
2018-01-11T03:27:50.334Z,1.30
2018-01-11T03:30:18.086Z,1.38
2018-01-11T03:32:45.785Z,1.33
2018-01-11T03:35:13.509Z,1.34
2018-01-11T03:37:41.625Z,1.35
2018-01-11T03:40:09.408Z,1.22
2018-01-11T03:42:37.123Z,1.33
2018-01-11T03:45:04.891Z,1.27
2018-01-11T03:47:32.594Z,1.32
2018-01-11T03:50:00.313Z,1.13
2018-01-11T03:52:28.031Z,1.14
2018-01-11T03:54:55.734Z,1.19
2018-01-11T03:57:23.460Z,1.14
2018-01-11T03:59:51.157Z,1.18
2018-01-11T04:02:19.813Z,1.08
2018-01-11T04:04:47.539Z,1.09
2018-01-11T04:07:15.280Z,1.11
2018-01-11T04:09:43.036Z,1.12
2018-01-11T04:12:10.726Z,1.16
2018-01-11T04:14:38.454Z,1.19
2018-01-11T04:17:06.154Z,1.27
2018-01-11T04:19:33.910Z,1.22
2018-01-11T04:22:02.426Z,1.21
2018-01-11T04:24:30.161Z,1.20
2018-01-11T04:26:57.878Z,1.04
2018-01-11T04:29:25.631Z,1.21
2018-01-11T04:31:53.330Z,1.13
2018-01-11T04:34:21.272Z,1.21
2018-01-11T04:36:49.414Z,1.20
2018-01-11T04:39:17.232Z,1.21
2018-01-11T04:41:45.023Z,1.27
2018-01-11T04:44:12.703Z,1.27
2018-01-11T04:46:40.408Z,1.27
2018-01-11T04:49:08.168Z,1.06
2018-01-11T04:51:35.837Z,1.16
2018-01-11T04:54:03.550Z,1.28
2018-01-11T04:56:31.317Z,1.19
2018-01-11T04:58:59.004Z,1.25
2018-01-11T05:01:26.860Z,1.14
2018-01-11T05:03:54.544Z,1.18
2018-01-11T05:06:22.391Z,1.03
2018-01-11T05:08:50.082Z,1.06
2018-01-11T05:11:17.816Z,1.03
2018-01-11T05:13:45.495Z,1.13
2018-01-11T05:16:13.183Z,1.08
2018-01-11T05:18:40.939Z,0.89
2018-01-11T05:21:08.983Z,0.90
2018-01-11T05:23:36.670Z,0.92
2018-01-11T05:26:04.404Z,0.98
2018-01-11T05:28:32.241Z,0.95
2018-01-11T05:30:59.920Z,0.98
2018-01-11T05:33:27.618Z,1.04
2018-01-11T05:35:55.380Z,1.02
2018-01-11T05:38:23.112Z,1.04
2018-01-11T05:40:50.814Z,1.05
2018-01-11T05:43:18.522Z,1.12
2018-01-11T05:45:46.265Z,1.21
2018-01-11T05:48:13.992Z,1.15
2018-01-11T05:50:41.742Z,1.02
2018-01-11T05:53:09.476Z,1.10
2018-01-11T05:55:37.216Z,1.10
2018-01-11T05:58:04.893Z,1.07
2018-01-11T06:00:32.634Z,1.14
2018-01-11T06:03:00.403Z,1.15
2018-01-11T06:05:28.155Z,1.14
2018-01-11T06:07:55.943Z,1.07
2018-01-11T06:10:23.671Z,1.07
2018-01-11T06:12:51.429Z,1.10
2018-01-11T06:15:19.153Z,1.15
2018-01-11T06:17:46.943Z,1.18
2018-01-11T06:20:14.637Z,1.20
2018-01-11T06:22:42.378Z,1.08
2018-01-11T06:25:10.146Z,1.11
2018-01-11T06:27:38.125Z,1.03
2018-01-11T06:30:05.951Z,1.02
2018-01-11T06:32:33.685Z,1.09
2018-01-11T06:35:01.428Z,1.12
2018-01-11T06:37:29.206Z,1.14
2018-01-11T06:39:56.884Z,1.16
2018-01-11T06:42:24.616Z,1.12
2018-01-11T06:44:52.339Z,1.18
2018-01-11T06:47:20.146Z,1.06
2018-01-11T06:49:47.815Z,1.00
2018-01-11T06:52:15.555Z,1.08
2018-01-11T06:54:43.235Z,1.09
2018-01-11T06:57:10.914Z,1.01
2018-01-11T06:59:38.691Z,0.96
2018-01-11T07:02:06.432Z,0.95
2018-01-11T07:04:34.297Z,0.92
2018-01-11T07:07:02.026Z,0.84
2018-01-11T07:09:29.792Z,0.89
2018-01-11T07:11:57.734Z,0.88
2018-01-11T07:14:25.426Z,0.84
2018-01-11T07:16:53.202Z,0.88
2018-01-11T07:19:20.935Z,0.93
2018-01-11T07:21:48.654Z,1.01
2018-01-11T07:24:16.401Z,0.98
2018-01-11T07:26:44.208Z,0.99
2018-01-11T07:29:11.898Z,1.00
2018-01-11T07:31:39.689Z,0.97
2018-01-11T07:34:07.428Z,0.95
2018-01-11T07:36:35.123Z,0.86
2018-01-11T07:39:02.881Z,0.88
2018-01-11T07:41:30.632Z,0.93
2018-01-11T07:43:58.394Z,1.02
2018-01-11T07:46:26.080Z,1.05
2018-01-11T07:48:53.855Z,1.04
2018-01-11T07:51:21.679Z,1.17
2018-01-11T07:53:49.440Z,1.17
2018-01-11T07:56:17.250Z,1.14
2018-01-11T07:58:45.007Z,1.13
2018-01-11T08:01:12.827Z,0.92
2018-01-11T08:03:40.567Z,0.93
2018-01-11T08:06:08.468Z,0.92
2018-01-11T08:08:36.194Z,0.93
2018-01-11T08:11:03.997Z,1.07
2018-01-11T08:13:31.843Z,1.00
2018-01-11T08:15:59.508Z,0.94
2018-01-11T08:18:27.323Z,0.90
2018-01-11T08:20:55.007Z,0.83
2018-01-11T08:23:22.819Z,0.93
2018-01-11T08:25:50.632Z,1.01
2018-01-11T08:28:18.323Z,1.02
2018-01-11T08:30:46.071Z,1.08
2018-01-11T08:33:13.788Z,1.20
2018-01-11T08:35:41.514Z,1.16
2018-01-11T08:38:09.294Z,1.13
2018-01-11T08:40:37.051Z,1.14
2018-01-11T08:43:04.779Z,1.15
2018-01-11T08:45:32.455Z,1.12
2018-01-11T08:48:00.237Z,1.15
2018-01-11T08:50:27.965Z,1.11
2018-01-11T08:52:55.790Z,1.18
2018-01-11T08:55:23.571Z,1.05
2018-01-11T08:57:51.288Z,1.00
2018-01-11T09:00:18.979Z,1.07
2018-01-11T09:02:47.634Z,1.11
2018-01-11T09:05:15.316Z,1.18
2018-01-11T09:07:42.979Z,1.20
2018-01-11T09:10:10.703Z,1.08
2018-01-11T09:12:38.540Z,1.21
2018-01-11T09:15:06.199Z,1.06
2018-01-11T09:17:33.846Z,1.19
2018-01-11T09:20:02.116Z,1.27
2018-01-11T09:22:29.934Z,1.31
2018-01-11T09:24:57.624Z,1.39
2018-01-11T09:27:25.416Z,1.39
2018-01-11T09:29:53.091Z,1.25
2018-01-11T09:32:20.840Z,1.30
2018-01-11T09:34:48.562Z,1.26
2018-01-11T09:37:16.308Z,1.33
2018-01-11T09:39:44.004Z,1.12
2018-01-11T09:42:11.731Z,1.29
2018-01-11T09:44:39.472Z,1.33
2018-01-11T09:47:07.165Z,1.28
2018-01-11T09:49:34.888Z,1.32
2018-01-11T09:52:02.692Z,1.35
2018-01-11T09:54:30.392Z,1.42
2018-01-11T09:56:58.138Z,1.37
2018-01-11T09:59:25.826Z,1.48
2018-01-11T10:01:53.619Z,1.47
2018-01-11T10:04:21.318Z,1.41
2018-01-11T10:06:49.067Z,1.43
2018-01-11T10:09:16.855Z,1.39
2018-01-11T10:11:44.558Z,1.28
2018-01-11T10:14:12.236Z,1.41
2018-01-11T10:16:39.982Z,1.38
2018-01-11T10:19:07.794Z,1.25
2018-01-11T10:21:35.540Z,1.45
2018-01-11T10:24:03.302Z,1.41
2018-01-11T10:26:31.111Z,1.27
2018-01-11T10:28:58.918Z,1.48
2018-01-11T10:31:26.737Z,1.46
2018-01-11T10:33:54.494Z,1.53
2018-01-11T10:36:22.196Z,1.67
2018-01-11T10:38:50.942Z,1.48
2018-01-11T10:41:18.623Z,1.55
2018-01-11T10:43:46.379Z,1.52
2018-01-11T10:46:14.098Z,1.63
2018-01-11T10:48:41.898Z,1.66
2018-01-11T10:51:09.631Z,1.76
2018-01-11T10:53:37.354Z,1.59
2018-01-11T10:56:05.060Z,1.66
2018-01-11T10:58:32.789Z,1.94
2018-01-11T11:01:06.086Z,1.82
2018-01-11T11:03:33.885Z,1.91
2018-01-11T11:06:02.903Z,1.86
2018-01-11T11:08:30.763Z,1.81
2018-01-11T11:10:58.445Z,1.87
2018-01-11T11:13:26.205Z,1.84
2018-01-11T11:15:53.908Z,1.75
2018-01-11T11:18:21.695Z,1.87
2018-01-11T11:20:49.442Z,2.06
2018-01-11T11:23:17.191Z,2.17
2018-01-11T11:25:44.890Z,2.18
2018-01-11T11:28:12.656Z,2.26
2018-01-11T11:30:40.328Z,2.32
2018-01-11T11:33:08.111Z,2.29
2018-01-11T11:35:35.813Z,2.29
2018-01-11T11:38:04.015Z,2.35
2018-01-11T11:40:31.755Z,2.62
2018-01-11T11:42:59.509Z,2.41
2018-01-11T11:45:27.214Z,2.63
2018-01-11T11:47:55.028Z,2.82
2018-01-11T11:50:22.805Z,2.87
2018-01-11T11:52:50.528Z,2.90
2018-01-11T11:55:18.235Z,2.61
2018-01-11T11:57:46.067Z,2.41
2018-01-11T12:00:13.902Z,2.31
2018-01-11T12:02:41.694Z,2.49
2018-01-11T12:05:09.394Z,2.50
2018-01-11T12:07:37.240Z,2.60
2018-01-11T12:10:05.223Z,2.70
2018-01-11T12:12:32.997Z,2.51
2018-01-11T12:15:00.755Z,2.49
2018-01-11T12:17:28.503Z,2.54
2018-01-11T12:19:56.225Z,2.55
2018-01-11T12:22:24.097Z,2.28
2018-01-11T12:24:51.896Z,2.54
2018-01-11T12:27:19.802Z,2.28
2018-01-11T12:29:47.792Z,2.13
2018-01-11T12:32:16.155Z,2.12
2018-01-11T12:34:43.870Z,2.11
2018-01-11T12:37:11.645Z,2.00
2018-01-11T12:39:40.266Z,2.00
2018-01-11T12:42:08.788Z,1.92
2018-01-11T12:44:36.534Z,1.90
2018-01-11T12:47:04.217Z,1.95
2018-01-11T12:49:32.002Z,1.95
2018-01-11T12:52:00.211Z,2.15
2018-01-11T12:54:27.917Z,2.14
2018-01-11T12:56:55.711Z,2.44
2018-01-11T12:59:23.563Z,2.30
2018-01-11T13:01:51.286Z,2.15
2018-01-11T13:04:19.118Z,2.03
2018-01-11T13:06:46.851Z,2.05
2018-01-11T13:09:14.560Z,2.08
2018-01-11T13:11:42.407Z,2.27
2018-01-11T13:14:10.217Z,2.38
2018-01-11T13:16:37.923Z,2.35
2018-01-11T13:19:05.722Z,2.26
2018-01-11T13:21:33.659Z,2.15
2018-01-11T13:24:01.453Z,2.21
2018-01-11T13:26:29.219Z,2.29
2018-01-11T13:28:56.988Z,2.31
2018-01-11T13:31:24.776Z,2.28
2018-01-11T13:33:52.548Z,2.50
2018-01-11T13:36:20.277Z,2.52
2018-01-11T13:38:48.086Z,2.22
2018-01-11T13:41:15.871Z,2.39
2018-01-11T13:43:43.820Z,2.42
2018-01-11T13:46:12.229Z,2.30
2018-01-11T13:48:40.092Z,2.44
2018-01-11T13:51:07.852Z,2.36
2018-01-11T13:53:35.616Z,2.68
2018-01-11T13:56:03.784Z,2.68
2018-01-11T13:58:31.665Z,2.64
2018-01-11T14:00:59.377Z,2.25
2018-01-11T14:03:27.162Z,2.26
2018-01-11T14:05:54.992Z,2.40
2018-01-11T14:08:22.811Z,2.05
2018-01-11T14:10:51.831Z,2.00
2018-01-11T14:13:19.576Z,2.11
2018-01-11T14:15:47.958Z,2.04
2018-01-11T14:18:15.687Z,2.04
2018-01-11T14:20:43.484Z,2.11
2018-01-11T14:23:11.269Z,2.09
2018-01-11T14:25:39.016Z,2.16
2018-01-11T14:28:06.745Z,2.33
2018-01-11T14:30:34.551Z,2.42
2018-01-11T14:33:02.417Z,2.36
2018-01-11T14:35:30.211Z,2.30
2018-01-11T14:37:58.083Z,2.32
2018-01-11T14:40:25.768Z,2.28
2018-01-11T14:42:54.532Z,2.19
2018-01-11T14:45:22.473Z,2.20
2018-01-11T14:47:50.249Z,2.15
2018-01-11T14:50:18.006Z,2.07
2018-01-11T14:52:45.814Z,2.11
2018-01-11T14:55:13.546Z,2.13
2018-01-11T14:57:41.412Z,2.12
2018-01-11T15:00:09.130Z,2.21
2018-01-11T15:02:36.881Z,2.09
2018-01-11T15:05:04.755Z,2.06
2018-01-11T15:07:32.483Z,2.02
2018-01-11T15:10:00.198Z,2.16
2018-01-11T15:12:27.991Z,2.21
2018-01-11T15:14:55.749Z,2.05
2018-01-11T15:17:23.639Z,1.96
2018-01-11T15:19:51.450Z,1.83
2018-01-11T15:22:19.228Z,1.88
2018-01-11T15:24:47.568Z,1.91
2018-01-11T15:27:15.374Z,2.00
2018-01-11T15:29:43.069Z,2.01
2018-01-11T15:32:10.876Z,1.98
2018-01-11T15:34:38.583Z,1.98
2018-01-11T15:37:06.355Z,1.94
2018-01-11T15:39:34.159Z,1.85
2018-01-11T15:42:01.956Z,1.71
2018-01-11T15:44:29.720Z,1.74
2018-01-11T15:46:57.465Z,1.84
2018-01-11T15:49:25.254Z,1.88
2018-01-11T15:51:52.955Z,1.83
2018-01-11T15:54:20.729Z,1.69
2018-01-11T15:56:48.456Z,1.84
2018-01-11T15:59:16.252Z,1.99
2018-01-11T16:01:44.008Z,2.03
2018-01-11T16:04:11.858Z,1.96
2018-01-11T16:06:39.667Z,1.78
2018-01-11T16:09:07.502Z,1.89
2018-01-11T16:11:35.257Z,2.00
2018-01-11T16:14:03.070Z,2.19
2018-01-11T16:16:30.825Z,2.19
2018-01-11T16:18:58.536Z,2.12
2018-01-11T16:21:26.360Z,1.85
2018-01-11T16:23:54.180Z,1.93
2018-01-11T16:26:21.949Z,1.79
2018-01-11T16:28:49.743Z,1.69
2018-01-11T16:31:17.534Z,1.74
2018-01-11T16:33:45.261Z,1.78
2018-01-11T16:36:13.094Z,1.82
2018-01-11T16:38:41.030Z,1.90
2018-01-11T16:41:08.944Z,1.93
2018-01-11T16:43:36.685Z,1.93
2018-01-11T16:46:04.574Z,1.93
2018-01-11T16:48:32.345Z,1.94
2018-01-11T16:51:00.160Z,1.89
2018-01-11T16:53:28.584Z,1.86
2018-01-11T16:55:56.345Z,1.92
2018-01-11T16:58:24.140Z,1.87
2018-01-11T17:00:51.981Z,1.76
2018-01-11T17:03:20.862Z,1.70
2018-01-11T17:05:48.813Z,1.72
2018-01-11T17:08:17.132Z,1.68
2018-01-11T17:10:45.101Z,1.71
2018-01-11T17:13:13.850Z,1.62
2018-01-11T17:15:41.639Z,1.65
2018-01-11T17:18:09.451Z,1.64
2018-01-11T17:20:37.241Z,1.63
2018-01-11T17:23:05.048Z,1.69
2018-01-11T17:25:34.130Z,1.65
2018-01-11T17:28:01.935Z,1.73
2018-01-11T17:30:29.708Z,1.82
2018-01-11T17:32:57.711Z,1.83
2018-01-11T17:35:25.699Z,1.86
2018-01-11T17:37:53.627Z,1.93
2018-01-11T17:40:21.626Z,1.93
2018-01-11T17:42:50.616Z,1.84
2018-01-11T17:45:18.516Z,1.73
2018-01-11T17:47:47.215Z,1.87
2018-01-11T17:50:15.064Z,1.83
2018-01-11T17:52:42.940Z,1.94
2018-01-11T17:55:10.661Z,1.92
2018-01-11T17:57:38.431Z,1.94
2018-01-11T18:00:07.930Z,1.91
2018-01-11T18:02:35.770Z,1.95
2018-01-11T18:05:03.559Z,1.99
2018-01-11T18:07:31.396Z,1.96
2018-01-11T18:09:59.290Z,1.91
2018-01-11T18:12:27.094Z,1.74
2018-01-11T18:14:54.817Z,1.84
2018-01-11T18:17:22.602Z,1.88
2018-01-11T18:19:50.348Z,1.85
2018-01-11T18:22:18.184Z,1.88
2018-01-11T18:24:45.961Z,1.83
2018-01-11T18:27:20.377Z,1.84
2018-01-11T18:29:59.830Z,1.91
2018-01-11T18:32:53.440Z,1.87
2018-01-11T18:35:23.877Z,1.74
2018-01-11T18:37:53.961Z,1.87
2018-01-11T18:47:16.255Z,1.85
2018-01-11T18:49:44.362Z,1.77
2018-01-11T18:52:12.283Z,1.77
2018-01-11T18:54:40.902Z,1.77
2018-01-11T18:57:09.026Z,1.74
2018-01-11T18:59:36.812Z,1.71
2018-01-11T19:02:04.897Z,1.70
2018-01-11T19:04:33.405Z,1.76
2018-01-11T19:07:01.186Z,1.81
2018-01-11T19:09:28.957Z,1.86
2018-01-11T19:11:56.749Z,1.84
2018-01-11T19:14:24.648Z,1.84
2018-01-11T19:16:52.880Z,1.86
2018-01-11T19:19:20.770Z,1.89
2018-01-11T19:21:48.519Z,1.86
2018-01-11T19:24:16.744Z,1.73
2018-01-11T19:26:45.627Z,1.75
2018-01-11T19:29:13.514Z,1.65
2018-01-11T19:31:41.620Z,1.69
2018-01-11T19:34:12.030Z,1.68
2018-01-11T19:36:40.192Z,1.65
2018-01-11T19:39:07.905Z,1.66
2018-01-11T19:41:35.775Z,1.68
2018-01-11T19:44:04.356Z,1.66
2018-01-11T19:46:32.240Z,1.65
2018-01-11T19:49:00.068Z,1.51
2018-01-11T19:51:29.724Z,1.59
2018-01-11T19:53:57.538Z,1.60
2018-01-11T19:56:25.271Z,1.66
2018-01-11T19:58:53.046Z,1.55
2018-01-11T20:01:20.921Z,1.48
2018-01-11T20:03:48.902Z,1.45
2018-01-11T20:06:16.822Z,1.40
2018-01-11T20:08:45.346Z,1.40
2018-01-11T20:11:13.093Z,1.33
2018-01-11T20:13:40.886Z,1.39
2018-01-11T20:16:08.607Z,1.39
2018-01-11T20:18:36.413Z,1.43
2018-01-11T20:21:04.454Z,1.36
2018-01-11T20:23:32.517Z,1.31
2018-01-11T20:26:00.667Z,1.34
2018-01-11T20:28:29.355Z,1.39
2018-01-11T20:30:57.074Z,1.33
2018-01-11T20:33:24.844Z,1.39
2018-01-11T20:35:52.581Z,1.37
2018-01-11T20:38:20.397Z,1.35
2018-01-11T20:40:48.220Z,1.30
2018-01-11T20:43:15.918Z,1.42
2018-01-11T20:45:43.742Z,1.53
2018-01-11T20:48:11.531Z,1.76
2018-01-11T20:50:40.277Z,1.55
2018-01-11T20:53:08.024Z,1.53
2018-01-11T20:55:35.747Z,1.67
2018-01-11T20:58:03.594Z,1.57
2018-01-11T21:00:31.457Z,1.52
2018-01-11T21:02:59.270Z,1.51
2018-01-11T21:05:28.635Z,1.54
2018-01-11T21:07:56.500Z,1.55
2018-01-11T21:10:25.363Z,1.49
2018-01-11T21:12:53.296Z,1.41
2018-01-11T21:15:21.117Z,1.51
2018-01-11T21:17:49.783Z,1.43
2018-01-11T21:20:17.693Z,1.47
2018-01-11T21:22:47.416Z,1.43
2018-01-11T21:25:15.479Z,1.40
2018-01-11T21:27:43.337Z,1.39
2018-01-11T21:30:11.219Z,1.39
2018-01-11T21:32:39.123Z,1.38
2018-01-11T21:35:07.064Z,1.26
2018-01-11T21:37:35.975Z,1.24
2018-01-11T21:40:03.981Z,1.25
2018-01-11T21:42:31.723Z,1.27
2018-01-11T21:44:59.502Z,1.26
2018-01-11T21:47:27.344Z,1.24
2018-01-11T21:49:55.030Z,1.28
2018-01-11T21:52:22.736Z,1.37
2018-01-11T21:54:50.491Z,1.29
2018-01-11T21:57:18.232Z,1.34
2018-01-11T21:59:46.888Z,1.29
2018-01-11T22:02:14.762Z,1.31
2018-01-11T22:04:42.523Z,1.33
2018-01-11T22:07:10.278Z,1.35
2018-01-11T22:09:38.109Z,1.37
2018-01-11T22:12:05.880Z,1.37
2018-01-11T22:14:33.734Z,1.38
2018-01-11T22:17:01.444Z,1.44
2018-01-11T22:19:29.240Z,1.44
2018-01-11T22:21:56.984Z,1.49
2018-01-11T22:24:24.696Z,1.50
2018-01-11T22:26:52.391Z,1.43
2018-01-11T22:29:20.114Z,1.46
2018-01-11T22:31:48.100Z,1.48
2018-01-11T22:34:15.914Z,1.53
2018-01-11T22:36:43.698Z,1.48
2018-01-11T22:39:11.451Z,1.54
2018-01-11T22:41:39.143Z,1.53
2018-01-11T22:44:06.911Z,1.50
2018-01-11T22:46:34.622Z,1.54
2018-01-11T22:49:02.324Z,1.50
2018-01-11T22:51:30.084Z,1.52
2018-01-11T22:53:57.814Z,1.47
2018-01-11T22:56:25.544Z,1.48
2018-01-11T22:58:53.294Z,1.50
2018-01-11T23:01:20.994Z,1.56
2018-01-11T23:03:48.747Z,1.53
2018-01-11T23:06:16.501Z,1.53
2018-01-11T23:08:44.197Z,1.54
2018-01-11T23:14:11.596Z,1.50
2018-01-11T23:16:39.528Z,1.50
2018-01-11T23:19:07.237Z,1.49
2018-01-11T23:21:35.577Z,1.48
2018-01-11T23:24:03.298Z,1.50
2018-01-11T23:26:30.968Z,1.47
2018-01-11T23:28:58.715Z,1.45
2018-01-11T23:31:26.418Z,1.51
2018-01-11T23:33:54.091Z,1.60
2018-01-11T23:36:21.830Z,1.60
2018-01-11T23:38:49.555Z,1.62
2018-01-11T23:41:17.294Z,1.59
2018-01-11T23:43:44.948Z,1.56
2018-01-11T23:46:12.695Z,1.51
2018-01-11T23:48:40.443Z,1.46
2018-01-11T23:51:08.157Z,1.48
2018-01-11T23:53:35.906Z,1.42
2018-01-11T23:56:03.647Z,1.46
2018-01-11T23:58:31.421Z,1.50
